sensor_id;sensor_type;location;lat;lon;timestamp;temperature;humidity
11538;DHT22;50159;49.426;11.182;2022-09-09T00:00:53;12.20;99.90
11538;DHT22;50159;49.426;11.182;2022-09-09T00:03:30;12.50;99.90
11538;DHT22;50159;49.426;11.182;2022-09-09T00:06:32;12.50;99.90
11538;DHT22;50159;49.426;11.182;2022-09-09T00:09:16;12.50;99.90
11538;DHT22;50159;49.426;11.182;2022-09-09T00:11:52;12.40;99.90
11538;DHT22;50159;49.426;11.182;2022-09-09T00:14:25;12.40;99.90
11538;DHT22;50159;49.426;11.182;2022-09-09T00:17:05;12.40;99.90
11538;DHT22;50159;49.426;11.182;2022-09-09T00:19:46;12.40;99.90
11538;DHT22;50159;49.426;11.182;2022-09-09T00:22:26;12.40;99.90
11538;DHT22;50159;49.426;11.182;2022-09-09T00:25:09;12.30;99.90
11538;DHT22;50159;49.426;11.182;2022-09-09T00:27:56;12.30;99.90
11538;DHT22;50159;49.426;11.182;2022-09-09T00:30:29;12.30;99.90
11538;DHT22;50159;49.426;11.182;2022-09-09T00:33:10;12.30;99.90
11538;DHT22;50159;49.426;11.182;2022-09-09T00:35:45;12.30;99.90
11538;DHT22;50159;49.426;11.182;2022-09-09T00:38:19;12.30;99.90
11538;DHT22;50159;49.426;11.182;2022-09-09T00:41:00;12.30;99.90
11538;DHT22;50159;49.426;11.182;2022-09-09T00:43:38;12.30;99.90
11538;DHT22;50159;49.426;11.182;2022-09-09T00:55:56;12.10;99.90
11538;DHT22;50159;49.426;11.182;2022-09-09T00:58:25;12.10;99.90
11538;DHT22;50159;49.426;11.182;2022-09-09T01:01:05;12.10;99.90
11538;DHT22;50159;49.426;11.182;2022-09-09T01:03:41;12.10;99.90
11538;DHT22;50159;49.426;11.182;2022-09-09T01:06:29;12.10;99.90
11538;DHT22;50159;49.426;11.182;2022-09-09T01:09:22;12.10;99.90
11538;DHT22;50159;49.426;11.182;2022-09-09T01:12:12;12.00;99.90
11538;DHT22;50159;49.426;11.182;2022-09-09T01:15:18;12.00;99.90
11538;DHT22;50159;49.426;11.182;2022-09-09T01:18:06;12.00;99.90
11538;DHT22;50159;49.426;11.182;2022-09-09T01:24:25;11.90;99.90
11538;DHT22;50159;49.426;11.182;2022-09-09T01:27:01;11.90;99.90
11538;DHT22;50159;49.426;11.182;2022-09-09T01:29:32;11.90;99.90
11538;DHT22;50159;49.426;11.182;2022-09-09T01:32:37;11.90;99.90
11538;DHT22;50159;49.426;11.182;2022-09-09T01:35:07;11.90;99.90
11538;DHT22;50159;49.426;11.182;2022-09-09T01:37:38;11.90;99.90
11538;DHT22;50159;49.426;11.182;2022-09-09T01:40:05;11.90;99.90
11538;DHT22;50159;49.426;11.182;2022-09-09T01:42:33;11.80;99.90
11538;DHT22;50159;49.426;11.182;2022-09-09T01:45:00;11.90;99.90
11538;DHT22;50159;49.426;11.182;2022-09-09T01:47:27;11.90;99.90
11538;DHT22;50159;49.426;11.182;2022-09-09T01:49:53;11.90;99.90
11538;DHT22;50159;49.426;11.182;2022-09-09T01:52:20;11.90;99.90
11538;DHT22;50159;49.426;11.182;2022-09-09T01:54:47;11.90;99.90
11538;DHT22;50159;49.426;11.182;2022-09-09T01:57:20;11.90;99.90
11538;DHT22;50159;49.426;11.182;2022-09-09T02:05:39;12.00;99.90
11538;DHT22;50159;49.426;11.182;2022-09-09T02:08:53;12.00;99.90
11538;DHT22;50159;49.426;11.182;2022-09-09T02:11:24;12.00;99.90
11538;DHT22;50159;49.426;11.182;2022-09-09T02:16:50;12.00;99.90
11538;DHT22;50159;49.426;11.182;2022-09-09T02:19:24;12.00;99.90
11538;DHT22;50159;49.426;11.182;2022-09-09T02:21:59;12.00;99.90
11538;DHT22;50159;49.426;11.182;2022-09-09T02:24:29;12.00;99.90
11538;DHT22;50159;49.426;11.182;2022-09-09T02:27:01;12.00;99.90
11538;DHT22;50159;49.426;11.182;2022-09-09T02:29:36;12.00;99.90
11538;DHT22;50159;49.426;11.182;2022-09-09T02:32:11;12.10;99.90
11538;DHT22;50159;49.426;11.182;2022-09-09T02:34:44;12.10;99.90
11538;DHT22;50159;49.426;11.182;2022-09-09T02:37:18;12.10;99.90
11538;DHT22;50159;49.426;11.182;2022-09-09T02:39:48;12.10;99.90
11538;DHT22;50159;49.426;11.182;2022-09-09T02:42:15;12.20;99.90
11538;DHT22;50159;49.426;11.182;2022-09-09T02:44:42;12.20;99.90
11538;DHT22;50159;49.426;11.182;2022-09-09T02:53:09;12.40;99.90
11538;DHT22;50159;49.426;11.182;2022-09-09T02:55:58;12.50;99.90
11538;DHT22;50159;49.426;11.182;2022-09-09T02:58:30;12.50;99.90
11538;DHT22;50159;49.426;11.182;2022-09-09T03:00:58;12.50;99.90
11538;DHT22;50159;49.426;11.182;2022-09-09T03:03:27;12.60;99.90
11538;DHT22;50159;49.426;11.182;2022-09-09T03:05:54;12.60;99.90
11538;DHT22;50159;49.426;11.182;2022-09-09T03:08:21;12.60;99.90
11538;DHT22;50159;49.426;11.182;2022-09-09T03:10:48;12.70;99.90
11538;DHT22;50159;49.426;11.182;2022-09-09T03:13:15;12.70;99.90
11538;DHT22;50159;49.426;11.182;2022-09-09T03:15:42;12.70;99.90
11538;DHT22;50159;49.426;11.182;2022-09-09T03:18:09;12.80;99.90
11538;DHT22;50159;49.426;11.182;2022-09-09T03:20:36;12.80;99.90
11538;DHT22;50159;49.426;11.182;2022-09-09T03:23:02;12.80;99.90
11538;DHT22;50159;49.426;11.182;2022-09-09T03:25:29;12.80;99.90
11538;DHT22;50159;49.426;11.182;2022-09-09T03:27:56;12.80;99.90
11538;DHT22;50159;49.426;11.182;2022-09-09T03:30:25;12.90;99.90
11538;DHT22;50159;49.426;11.182;2022-09-09T03:32:53;12.80;99.90
11538;DHT22;50159;49.426;11.182;2022-09-09T03:35:21;12.80;99.90
11538;DHT22;50159;49.426;11.182;2022-09-09T03:37:48;12.80;99.90
11538;DHT22;50159;49.426;11.182;2022-09-09T03:40:15;12.80;99.90
11538;DHT22;50159;49.426;11.182;2022-09-09T03:42:42;12.80;99.90
11538;DHT22;50159;49.426;11.182;2022-09-09T03:45:10;12.80;99.90
11538;DHT22;50159;49.426;11.182;2022-09-09T03:47:37;12.70;99.90
11538;DHT22;50159;49.426;11.182;2022-09-09T03:50:05;12.70;99.90
11538;DHT22;50159;49.426;11.182;2022-09-09T03:52:39;12.70;99.90
11538;DHT22;50159;49.426;11.182;2022-09-09T03:55:08;12.70;99.90
11538;DHT22;50159;49.426;11.182;2022-09-09T03:57:35;12.70;99.90
11538;DHT22;50159;49.426;11.182;2022-09-09T04:00:04;12.70;99.90
11538;DHT22;50159;49.426;11.182;2022-09-09T04:02:33;12.70;99.90
11538;DHT22;50159;49.426;11.182;2022-09-09T04:05:00;12.80;99.90
11538;DHT22;50159;49.426;11.182;2022-09-09T04:07:27;12.80;99.90
11538;DHT22;50159;49.426;11.182;2022-09-09T04:09:54;12.90;99.90
11538;DHT22;50159;49.426;11.182;2022-09-09T04:12:21;12.90;99.90
11538;DHT22;50159;49.426;11.182;2022-09-09T04:14:48;13.00;99.90
11538;DHT22;50159;49.426;11.182;2022-09-09T04:17:15;13.00;99.90
11538;DHT22;50159;49.426;11.182;2022-09-09T04:19:43;13.00;99.90
11538;DHT22;50159;49.426;11.182;2022-09-09T04:22:10;13.00;99.90
11538;DHT22;50159;49.426;11.182;2022-09-09T04:24:37;13.10;99.90
11538;DHT22;50159;49.426;11.182;2022-09-09T04:27:04;13.10;99.90
11538;DHT22;50159;49.426;11.182;2022-09-09T04:29:31;13.10;99.90
11538;DHT22;50159;49.426;11.182;2022-09-09T04:31:58;13.20;99.90
11538;DHT22;50159;49.426;11.182;2022-09-09T04:34:25;13.20;99.90
11538;DHT22;50159;49.426;11.182;2022-09-09T04:36:52;13.20;99.90
11538;DHT22;50159;49.426;11.182;2022-09-09T04:39:18;13.30;99.90
11538;DHT22;50159;49.426;11.182;2022-09-09T04:41:46;13.30;99.90
11538;DHT22;50159;49.426;11.182;2022-09-09T04:44:13;13.40;99.90
11538;DHT22;50159;49.426;11.182;2022-09-09T04:46:40;13.40;99.90
11538;DHT22;50159;49.426;11.182;2022-09-09T04:49:07;13.40;99.90
11538;DHT22;50159;49.426;11.182;2022-09-09T04:51:40;13.40;99.90
11538;DHT22;50159;49.426;11.182;2022-09-09T04:54:07;13.40;99.90
11538;DHT22;50159;49.426;11.182;2022-09-09T04:56:34;13.40;99.90
11538;DHT22;50159;49.426;11.182;2022-09-09T04:59:00;13.40;99.90
11538;DHT22;50159;49.426;11.182;2022-09-09T05:01:29;13.40;99.90
11538;DHT22;50159;49.426;11.182;2022-09-09T05:03:56;13.40;99.90
11538;DHT22;50159;49.426;11.182;2022-09-09T05:06:23;13.40;99.90
11538;DHT22;50159;49.426;11.182;2022-09-09T05:08:51;13.40;99.90
11538;DHT22;50159;49.426;11.182;2022-09-09T05:11:20;13.50;99.90
11538;DHT22;50159;49.426;11.182;2022-09-09T05:13:50;13.50;99.90
11538;DHT22;50159;49.426;11.182;2022-09-09T05:16:17;13.50;99.90
11538;DHT22;50159;49.426;11.182;2022-09-09T05:18:45;13.60;99.90
11538;DHT22;50159;49.426;11.182;2022-09-09T05:21:14;13.60;99.90
11538;DHT22;50159;49.426;11.182;2022-09-09T05:23:42;13.60;99.90
11538;DHT22;50159;49.426;11.182;2022-09-09T05:26:13;13.60;99.90
11538;DHT22;50159;49.426;11.182;2022-09-09T05:28:44;13.70;99.90
11538;DHT22;50159;49.426;11.182;2022-09-09T05:31:12;13.70;99.90
11538;DHT22;50159;49.426;11.182;2022-09-09T05:33:41;13.70;99.90
11538;DHT22;50159;49.426;11.182;2022-09-09T05:36:12;13.80;99.90
11538;DHT22;50159;49.426;11.182;2022-09-09T05:38:41;13.90;99.90
11538;DHT22;50159;49.426;11.182;2022-09-09T05:41:09;13.90;99.90
11538;DHT22;50159;49.426;11.182;2022-09-09T05:43:38;13.90;99.90
11538;DHT22;50159;49.426;11.182;2022-09-09T05:46:07;14.00;99.90
11538;DHT22;50159;49.426;11.182;2022-09-09T05:48:38;14.00;99.90
11538;DHT22;50159;49.426;11.182;2022-09-09T05:51:09;14.00;99.90
11538;DHT22;50159;49.426;11.182;2022-09-09T05:53:39;14.00;99.90
11538;DHT22;50159;49.426;11.182;2022-09-09T05:56:08;14.10;99.90
11538;DHT22;50159;49.426;11.182;2022-09-09T05:58:37;14.00;99.90
11538;DHT22;50159;49.426;11.182;2022-09-09T06:01:14;14.10;99.90
11538;DHT22;50159;49.426;11.182;2022-09-09T06:03:42;14.10;99.90
11538;DHT22;50159;49.426;11.182;2022-09-09T06:06:15;14.00;99.90
11538;DHT22;50159;49.426;11.182;2022-09-09T06:08:44;14.00;99.90
11538;DHT22;50159;49.426;11.182;2022-09-09T06:11:15;14.00;99.90
11538;DHT22;50159;49.426;11.182;2022-09-09T06:13:43;14.00;99.90
11538;DHT22;50159;49.426;11.182;2022-09-09T06:16:12;14.10;99.90
11538;DHT22;50159;49.426;11.182;2022-09-09T06:18:41;14.10;99.90
11538;DHT22;50159;49.426;11.182;2022-09-09T06:21:16;14.20;99.90
11538;DHT22;50159;49.426;11.182;2022-09-09T06:23:45;14.20;99.90
11538;DHT22;50159;49.426;11.182;2022-09-09T06:26:48;14.30;99.90
11538;DHT22;50159;49.426;11.182;2022-09-09T06:29:08;14.40;99.90
11538;DHT22;50159;49.426;11.182;2022-09-09T06:31:36;14.50;99.90
11538;DHT22;50159;49.426;11.182;2022-09-09T06:34:06;14.60;99.90
11538;DHT22;50159;49.426;11.182;2022-09-09T06:36:35;14.70;99.90
11538;DHT22;50159;49.426;11.182;2022-09-09T06:39:05;14.80;99.90
11538;DHT22;50159;49.426;11.182;2022-09-09T06:41:39;14.80;99.90
11538;DHT22;50159;49.426;11.182;2022-09-09T06:44:06;14.80;99.90
11538;DHT22;50159;49.426;11.182;2022-09-09T06:46:33;14.80;99.90
11538;DHT22;50159;49.426;11.182;2022-09-09T06:49:00;14.80;99.90
11538;DHT22;50159;49.426;11.182;2022-09-09T06:51:32;14.90;99.90
11538;DHT22;50159;49.426;11.182;2022-09-09T06:54:01;14.90;99.90
11538;DHT22;50159;49.426;11.182;2022-09-09T06:56:37;14.90;99.90
11538;DHT22;50159;49.426;11.182;2022-09-09T06:59:07;15.00;99.90
11538;DHT22;50159;49.426;11.182;2022-09-09T07:01:37;15.10;99.90
11538;DHT22;50159;49.426;11.182;2022-09-09T07:04:07;15.20;99.90
11538;DHT22;50159;49.426;11.182;2022-09-09T07:06:37;15.30;99.90
11538;DHT22;50159;49.426;11.182;2022-09-09T07:09:08;15.40;99.90
11538;DHT22;50159;49.426;11.182;2022-09-09T07:11:42;15.50;99.90
11538;DHT22;50159;49.426;11.182;2022-09-09T07:14:13;15.50;99.90
11538;DHT22;50159;49.426;11.182;2022-09-09T07:16:41;15.20;99.90
11538;DHT22;50159;49.426;11.182;2022-09-09T07:19:09;15.60;99.90
11538;DHT22;50159;49.426;11.182;2022-09-09T07:21:38;15.60;99.90
11538;DHT22;50159;49.426;11.182;2022-09-09T07:24:06;15.70;99.90
11538;DHT22;50159;49.426;11.182;2022-09-09T07:26:33;15.80;99.90
11538;DHT22;50159;49.426;11.182;2022-09-09T07:29:00;15.80;99.90
11538;DHT22;50159;49.426;11.182;2022-09-09T07:31:30;15.90;99.90
11538;DHT22;50159;49.426;11.182;2022-09-09T07:33:59;15.90;99.90
11538;DHT22;50159;49.426;11.182;2022-09-09T07:36:37;16.00;99.90
11538;DHT22;50159;49.426;11.182;2022-09-09T07:39:08;16.00;99.90
11538;DHT22;50159;49.426;11.182;2022-09-09T07:41:40;16.00;99.90
11538;DHT22;50159;49.426;11.182;2022-09-09T07:44:11;16.00;99.90
11538;DHT22;50159;49.426;11.182;2022-09-09T07:46:40;16.10;99.90
11538;DHT22;50159;49.426;11.182;2022-09-09T07:49:09;16.20;99.90
11538;DHT22;50159;49.426;11.182;2022-09-09T07:51:39;16.50;99.90
11538;DHT22;50159;49.426;11.182;2022-09-09T07:54:13;16.50;99.90
11538;DHT22;50159;49.426;11.182;2022-09-09T07:56:41;16.50;99.90
11538;DHT22;50159;49.426;11.182;2022-09-09T07:59:09;16.60;99.90
11538;DHT22;50159;49.426;11.182;2022-09-09T08:01:39;16.70;99.90
11538;DHT22;50159;49.426;11.182;2022-09-09T08:04:10;16.90;99.90
11538;DHT22;50159;49.426;11.182;2022-09-09T08:06:50;16.90;99.90
11538;DHT22;50159;49.426;11.182;2022-09-09T08:09:22;16.90;99.90
11538;DHT22;50159;49.426;11.182;2022-09-09T08:11:53;17.00;99.90
11538;DHT22;50159;49.426;11.182;2022-09-09T08:14:20;17.00;99.90
11538;DHT22;50159;49.426;11.182;2022-09-09T08:16:48;17.10;99.90
11538;DHT22;50159;49.426;11.182;2022-09-09T08:19:16;17.30;99.90
11538;DHT22;50159;49.426;11.182;2022-09-09T08:21:44;17.70;99.90
11538;DHT22;50159;49.426;11.182;2022-09-09T08:24:12;18.00;99.90
11538;DHT22;50159;49.426;11.182;2022-09-09T08:26:43;18.30;99.90
11538;DHT22;50159;49.426;11.182;2022-09-09T08:29:13;18.60;99.90
11538;DHT22;50159;49.426;11.182;2022-09-09T08:31:53;18.80;99.90
11538;DHT22;50159;49.426;11.182;2022-09-09T08:34:24;19.10;99.90
11538;DHT22;50159;49.426;11.182;2022-09-09T08:36:53;19.50;99.60
11538;DHT22;50159;49.426;11.182;2022-09-09T08:39:21;19.70;97.60
11538;DHT22;50159;49.426;11.182;2022-09-09T08:47:43;20.00;92.70
11538;DHT22;50159;49.426;11.182;2022-09-09T08:50:24;20.10;92.30
11538;DHT22;50159;49.426;11.182;2022-09-09T08:55:52;20.60;90.90
11538;DHT22;50159;49.426;11.182;2022-09-09T08:58:30;20.80;90.10
11538;DHT22;50159;49.426;11.182;2022-09-09T09:10:53;21.30;80.10
11538;DHT22;50159;49.426;11.182;2022-09-09T09:16:26;21.60;79.10
11538;DHT22;50159;49.426;11.182;2022-09-09T09:19:06;21.80;76.70
11538;DHT22;50159;49.426;11.182;2022-09-09T09:21:41;21.80;73.60
11538;DHT22;50159;49.426;11.182;2022-09-09T09:24:20;21.70;72.80
11538;DHT22;50159;49.426;11.182;2022-09-09T09:26:51;21.60;74.00
11538;DHT22;50159;49.426;11.182;2022-09-09T09:29:20;21.70;71.60
11538;DHT22;50159;49.426;11.182;2022-09-09T09:31:53;21.90;73.30
11538;DHT22;50159;49.426;11.182;2022-09-09T09:34:23;22.00;71.20
11538;DHT22;50159;49.426;11.182;2022-09-09T09:36:57;22.10;70.60
11538;DHT22;50159;49.426;11.182;2022-09-09T09:39:30;22.10;69.20
11538;DHT22;50159;49.426;11.182;2022-09-09T09:42:25;22.20;68.20
11538;DHT22;50159;49.426;11.182;2022-09-09T09:44:51;22.30;67.00
11538;DHT22;50159;49.426;11.182;2022-09-09T09:47:21;22.00;67.00
11538;DHT22;50159;49.426;11.182;2022-09-09T09:50:00;21.80;68.70
11538;DHT22;50159;49.426;11.182;2022-09-09T09:52:31;21.70;68.40
11538;DHT22;50159;49.426;11.182;2022-09-09T09:55:04;21.50;70.00
11538;DHT22;50159;49.426;11.182;2022-09-09T09:57:40;21.70;70.30
11538;DHT22;50159;49.426;11.182;2022-09-09T10:00:21;22.00;70.50
11538;DHT22;50159;49.426;11.182;2022-09-09T10:02:50;22.60;70.50
11538;DHT22;50159;49.426;11.182;2022-09-09T10:05:24;23.20;68.20
11538;DHT22;50159;49.426;11.182;2022-09-09T10:08:11;23.50;65.70
11538;DHT22;50159;49.426;11.182;2022-09-09T10:13:46;23.90;59.90
11538;DHT22;50159;49.426;11.182;2022-09-09T10:16:45;23.80;61.70
11538;DHT22;50159;49.426;11.182;2022-09-09T10:19:33;23.60;62.30
11538;DHT22;50159;49.426;11.182;2022-09-09T10:30:54;23.60;58.70
11538;DHT22;50159;49.426;11.182;2022-09-09T10:36:22;23.70;57.90
11538;DHT22;50159;49.426;11.182;2022-09-09T10:39:03;23.70;58.10
11538;DHT22;50159;49.426;11.182;2022-09-09T10:42:05;23.50;57.80
11538;DHT22;50159;49.426;11.182;2022-09-09T10:45:00;23.50;58.50
11538;DHT22;50159;49.426;11.182;2022-09-09T10:50:54;23.20;59.40
11538;DHT22;50159;49.426;11.182;2022-09-09T10:54:06;23.30;62.10
11538;DHT22;50159;49.426;11.182;2022-09-09T10:56:44;23.60;59.50
11538;DHT22;50159;49.426;11.182;2022-09-09T10:59:26;23.90;59.40
11538;DHT22;50159;49.426;11.182;2022-09-09T11:02:03;24.30;58.30
11538;DHT22;50159;49.426;11.182;2022-09-09T11:04:40;24.40;54.50
11538;DHT22;50159;49.426;11.182;2022-09-09T11:07:14;24.20;54.60
11538;DHT22;50159;49.426;11.182;2022-09-09T11:10:02;23.90;55.70
11538;DHT22;50159;49.426;11.182;2022-09-09T11:12:34;23.60;56.30
11538;DHT22;50159;49.426;11.182;2022-09-09T11:15:20;23.40;57.00
11538;DHT22;50159;49.426;11.182;2022-09-09T11:18:04;23.30;56.80
11538;DHT22;50159;49.426;11.182;2022-09-09T11:20:34;23.00;56.50
11538;DHT22;50159;49.426;11.182;2022-09-09T11:23:13;22.80;56.20
11538;DHT22;50159;49.426;11.182;2022-09-09T11:25:54;22.60;57.50
11538;DHT22;50159;49.426;11.182;2022-09-09T11:28:36;22.50;58.40
11538;DHT22;50159;49.426;11.182;2022-09-09T11:40:08;22.30;58.10
11538;DHT22;50159;49.426;11.182;2022-09-09T11:42:46;22.30;58.50
11538;DHT22;50159;49.426;11.182;2022-09-09T11:45:26;22.30;59.80
11538;DHT22;50159;49.426;11.182;2022-09-09T11:48:00;22.30;60.70
11538;DHT22;50159;49.426;11.182;2022-09-09T11:50:31;22.50;61.90
11538;DHT22;50159;49.426;11.182;2022-09-09T11:53:20;22.80;59.90
11538;DHT22;50159;49.426;11.182;2022-09-09T11:56:08;23.30;59.00
11538;DHT22;50159;49.426;11.182;2022-09-09T11:58:55;23.70;58.10
11538;DHT22;50159;49.426;11.182;2022-09-09T12:01:48;24.20;57.50
11538;DHT22;50159;49.426;11.182;2022-09-09T12:09:32;23.60;56.10
11538;DHT22;50159;49.426;11.182;2022-09-09T12:14:57;23.10;58.20
11538;DHT22;50159;49.426;11.182;2022-09-09T12:17:28;23.00;58.40
11538;DHT22;50159;49.426;11.182;2022-09-09T12:25:53;23.10;59.10
11538;DHT22;50159;49.426;11.182;2022-09-09T12:29:11;23.20;56.80
11538;DHT22;50159;49.426;11.182;2022-09-09T12:37:35;24.60;55.70
11538;DHT22;50159;49.426;11.182;2022-09-09T12:40:28;25.10;53.40
11538;DHT22;50159;49.426;11.182;2022-09-09T12:42:55;25.20;52.10
11538;DHT22;50159;49.426;11.182;2022-09-09T12:45:24;25.50;50.50
11538;DHT22;50159;49.426;11.182;2022-09-09T12:48:05;25.30;51.20
11538;DHT22;50159;49.426;11.182;2022-09-09T12:50:47;25.00;52.30
11538;DHT22;50159;49.426;11.182;2022-09-09T12:53:34;24.50;52.70
11538;DHT22;50159;49.426;11.182;2022-09-09T12:56:05;24.10;53.70
11538;DHT22;50159;49.426;11.182;2022-09-09T12:58:37;23.80;54.70
11538;DHT22;50159;49.426;11.182;2022-09-09T13:01:17;24.00;53.80
11538;DHT22;50159;49.426;11.182;2022-09-09T13:03:47;24.00;52.40
11538;DHT22;50159;49.426;11.182;2022-09-09T13:06:22;24.10;52.90
11538;DHT22;50159;49.426;11.182;2022-09-09T13:08:56;23.90;52.40
11538;DHT22;50159;49.426;11.182;2022-09-09T13:11:44;23.70;53.60
11538;DHT22;50159;49.426;11.182;2022-09-09T13:14:19;23.80;52.80
11538;DHT22;50159;49.426;11.182;2022-09-09T13:16:57;23.60;53.80
11538;DHT22;50159;49.426;11.182;2022-09-09T13:19:26;23.30;54.20
11538;DHT22;50159;49.426;11.182;2022-09-09T13:21:58;22.80;54.40
11538;DHT22;50159;49.426;11.182;2022-09-09T13:24:32;22.40;55.90
11538;DHT22;50159;49.426;11.182;2022-09-09T13:27:02;22.00;58.00
11538;DHT22;50159;49.426;11.182;2022-09-09T13:29:52;21.60;60.20
11538;DHT22;50159;49.426;11.182;2022-09-09T13:32:24;21.30;63.90
11538;DHT22;50159;49.426;11.182;2022-09-09T13:34:58;21.10;68.20
11538;DHT22;50159;49.426;11.182;2022-09-09T13:37:36;21.10;74.40
11538;DHT22;50159;49.426;11.182;2022-09-09T13:40:14;21.60;79.00
11538;DHT22;50159;49.426;11.182;2022-09-09T13:42:44;21.90;82.00
11538;DHT22;50159;49.426;11.182;2022-09-09T13:45:19;22.30;86.00
11538;DHT22;50159;49.426;11.182;2022-09-09T13:47:49;22.70;85.90
11538;DHT22;50159;49.426;11.182;2022-09-09T13:50:27;23.10;85.20
11538;DHT22;50159;49.426;11.182;2022-09-09T13:52:57;23.30;83.80
11538;DHT22;50159;49.426;11.182;2022-09-09T13:55:27;23.30;82.50
11538;DHT22;50159;49.426;11.182;2022-09-09T13:58:02;23.50;84.80
11538;DHT22;50159;49.426;11.182;2022-09-09T14:00:33;23.70;83.30
11538;DHT22;50159;49.426;11.182;2022-09-09T14:03:01;23.50;82.50
11538;DHT22;50159;49.426;11.182;2022-09-09T14:05:31;23.00;83.50
11538;DHT22;50159;49.426;11.182;2022-09-09T14:07:59;22.40;85.10
11538;DHT22;50159;49.426;11.182;2022-09-09T14:10:27;21.90;87.70
11538;DHT22;50159;49.426;11.182;2022-09-09T14:12:53;21.40;90.50
11538;DHT22;50159;49.426;11.182;2022-09-09T14:15:20;21.20;92.20
11538;DHT22;50159;49.426;11.182;2022-09-09T14:17:48;20.80;93.00
11538;DHT22;50159;49.426;11.182;2022-09-09T14:20:15;20.50;93.60
11538;DHT22;50159;49.426;11.182;2022-09-09T14:22:43;20.20;96.50
11538;DHT22;50159;49.426;11.182;2022-09-09T14:25:11;19.80;94.80
11538;DHT22;50159;49.426;11.182;2022-09-09T14:27:40;19.20;94.50
11538;DHT22;50159;49.426;11.182;2022-09-09T14:30:07;19.00;96.10
11538;DHT22;50159;49.426;11.182;2022-09-09T14:32:35;18.90;97.90
11538;DHT22;50159;49.426;11.182;2022-09-09T14:35:02;18.90;99.30
11538;DHT22;50159;49.426;11.182;2022-09-09T14:37:29;19.10;99.90
11538;DHT22;50159;49.426;11.182;2022-09-09T14:39:57;19.30;99.90
11538;DHT22;50159;49.426;11.182;2022-09-09T14:42:24;19.80;99.90
11538;DHT22;50159;49.426;11.182;2022-09-09T14:44:53;20.10;99.90
11538;DHT22;50159;49.426;11.182;2022-09-09T14:47:19;19.90;98.80
11538;DHT22;50159;49.426;11.182;2022-09-09T14:49:46;19.70;98.80
11538;DHT22;50159;49.426;11.182;2022-09-09T14:52:16;19.50;99.90
11538;DHT22;50159;49.426;11.182;2022-09-09T14:54:42;19.40;99.90
11538;DHT22;50159;49.426;11.182;2022-09-09T14:57:09;19.30;99.90
11538;DHT22;50159;49.426;11.182;2022-09-09T14:59:36;19.20;99.90
11538;DHT22;50159;49.426;11.182;2022-09-09T15:02:03;19.20;99.90
11538;DHT22;50159;49.426;11.182;2022-09-09T15:04:31;19.30;99.90
11538;DHT22;50159;49.426;11.182;2022-09-09T15:06:58;19.50;99.90
11538;DHT22;50159;49.426;11.182;2022-09-09T15:09:25;19.50;99.90
11538;DHT22;50159;49.426;11.182;2022-09-09T15:11:52;19.50;99.90
11538;DHT22;50159;49.426;11.182;2022-09-09T15:14:19;19.70;99.90
11538;DHT22;50159;49.426;11.182;2022-09-09T15:16:50;19.90;99.90
11538;DHT22;50159;49.426;11.182;2022-09-09T15:19:17;20.20;99.90
11538;DHT22;50159;49.426;11.182;2022-09-09T15:21:44;21.60;98.60
11538;DHT22;50159;49.426;11.182;2022-09-09T15:24:11;23.00;92.50
11538;DHT22;50159;49.426;11.182;2022-09-09T15:26:39;23.80;87.50
11538;DHT22;50159;49.426;11.182;2022-09-09T15:29:06;24.20;78.70
11538;DHT22;50159;49.426;11.182;2022-09-09T15:31:34;24.80;74.80
11538;DHT22;50159;49.426;11.182;2022-09-09T15:34:04;25.00;71.20
11538;DHT22;50159;49.426;11.182;2022-09-09T15:36:41;24.80;70.00
11538;DHT22;50159;49.426;11.182;2022-09-09T15:39:14;24.60;70.70
11538;DHT22;50159;49.426;11.182;2022-09-09T15:41:46;24.30;71.40
11538;DHT22;50159;49.426;11.182;2022-09-09T15:44:15;24.70;71.50
11538;DHT22;50159;49.426;11.182;2022-09-09T15:46:48;24.60;70.50
11538;DHT22;50159;49.426;11.182;2022-09-09T15:49:22;24.10;71.10
11538;DHT22;50159;49.426;11.182;2022-09-09T15:51:59;23.60;72.50
11538;DHT22;50159;49.426;11.182;2022-09-09T15:54:32;23.20;70.20
11538;DHT22;50159;49.426;11.182;2022-09-09T15:57:03;22.80;72.70
11538;DHT22;50159;49.426;11.182;2022-09-09T15:59:31;22.50;70.80
11538;DHT22;50159;49.426;11.182;2022-09-09T16:02:00;22.20;65.80
11538;DHT22;50159;49.426;11.182;2022-09-09T16:04:28;21.80;61.60
11538;DHT22;50159;49.426;11.182;2022-09-09T16:07:00;21.60;63.40
11538;DHT22;50159;49.426;11.182;2022-09-09T16:09:32;21.50;61.70
11538;DHT22;50159;49.426;11.182;2022-09-09T16:12:01;21.20;60.70
11538;DHT22;50159;49.426;11.182;2022-09-09T16:14:32;21.00;60.10
11538;DHT22;50159;49.426;11.182;2022-09-09T16:17:03;20.90;60.80
11538;DHT22;50159;49.426;11.182;2022-09-09T16:19:32;20.80;59.60
11538;DHT22;50159;49.426;11.182;2022-09-09T16:22:01;20.80;60.10
11538;DHT22;50159;49.426;11.182;2022-09-09T16:24:29;20.60;60.00
11538;DHT22;50159;49.426;11.182;2022-09-09T16:26:55;20.40;60.60
11538;DHT22;50159;49.426;11.182;2022-09-09T16:29:23;20.20;61.70
11538;DHT22;50159;49.426;11.182;2022-09-09T16:31:50;20.10;61.50
11538;DHT22;50159;49.426;11.182;2022-09-09T16:34:18;20.00;62.70
11538;DHT22;50159;49.426;11.182;2022-09-09T16:36:47;19.90;63.90
11538;DHT22;50159;49.426;11.182;2022-09-09T16:39:17;19.90;66.10
11538;DHT22;50159;49.426;11.182;2022-09-09T16:41:46;19.90;68.80
11538;DHT22;50159;49.426;11.182;2022-09-09T16:44:16;19.80;67.20
11538;DHT22;50159;49.426;11.182;2022-09-09T16:46:46;19.80;66.30
11538;DHT22;50159;49.426;11.182;2022-09-09T16:49:15;19.90;66.00
11538;DHT22;50159;49.426;11.182;2022-09-09T16:51:47;19.90;66.00
11538;DHT22;50159;49.426;11.182;2022-09-09T16:54:16;19.90;67.50
11538;DHT22;50159;49.426;11.182;2022-09-09T16:56:46;20.00;69.30
11538;DHT22;50159;49.426;11.182;2022-09-09T16:59:16;20.00;71.70
11538;DHT22;50159;49.426;11.182;2022-09-09T17:01:46;19.90;74.70
11538;DHT22;50159;49.426;11.182;2022-09-09T17:04:19;19.90;77.50
11538;DHT22;50159;49.426;11.182;2022-09-09T17:06:52;19.70;78.90
11538;DHT22;50159;49.426;11.182;2022-09-09T17:09:21;19.60;81.30
11538;DHT22;50159;49.426;11.182;2022-09-09T17:11:49;19.50;83.70
11538;DHT22;50159;49.426;11.182;2022-09-09T17:14:19;19.40;85.50
11538;DHT22;50159;49.426;11.182;2022-09-09T17:16:47;19.30;88.50
11538;DHT22;50159;49.426;11.182;2022-09-09T17:19:14;19.10;90.20
11538;DHT22;50159;49.426;11.182;2022-09-09T17:21:41;19.10;91.10
11538;DHT22;50159;49.426;11.182;2022-09-09T17:24:28;19.00;92.30